Time;durP1;ratioP1;P1;durP2;ratioP2;P2;SDS_P1;SDS_P2;PMS_P1;PMS_P2;Temp;Humidity;BMP_temperature;BMP_pressure;BME280_temperature;BME280_humidity;BME280_pressure;Samples;Min_cycle;Max_cycle;Signal;HPM_P1;HPM_P2
2022/08/31 00:04:59;;;;;;;1.12;1.10;;;14.20;99.90;;;;;;613205;234;26849;-68
2022/08/31 00:07:27;;;;;;;1.25;1.15;;;14.20;99.90;;;;;;610391;234;26567;-68
2022/08/31 00:09:55;;;;;;;1.23;1.12;;;14.20;99.90;;;;;;612453;235;26632;-68
2022/08/31 00:12:23;;;;;;;1.00;1.00;;;14.20;99.90;;;;;;607234;234;26681;-68
2022/08/31 00:14:51;;;;;;;1.40;1.20;;;14.10;99.90;;;;;;610947;235;26593;-68
2022/08/31 00:17:18;;;;;;;2.05;1.00;;;14.10;99.90;;;;;;612168;234;26592;-68
2022/08/31 00:19:45;;;;;;;1.12;1.12;;;14.10;99.90;;;;;;611313;234;26569;-67
2022/08/31 00:22:13;;;;;;;1.00;1.00;;;14.10;99.90;;;;;;609786;235;26895;-67
2022/08/31 00:24:40;;;;;;;1.15;1.05;;;14.10;99.90;;;;;;612379;235;26584;-67
2022/08/31 00:27:07;;;;;;;0.90;0.90;;;14.00;99.90;;;;;;607011;235;27319;-67
2022/08/31 00:29:34;;;;;;;1.00;1.00;;;14.00;99.90;;;;;;604915;236;26582;-67
2022/08/31 00:32:02;;;;;;;1.23;1.17;;;14.00;99.90;;;;;;607961;235;26891;-67
2022/08/31 00:34:29;;;;;;;0.93;0.93;;;14.00;99.90;;;;;;610751;235;26597;-67
2022/08/31 00:36:58;;;;;;;1.42;1.33;;;14.00;99.90;;;;;;611841;234;26695;-67
2022/08/31 00:39:25;;;;;;;1.10;1.10;;;14.00;99.90;;;;;;607472;236;26599;-67
2022/08/31 00:41:53;;;;;;;0.90;0.90;;;14.00;99.90;;;;;;607287;235;26607;-67
2022/08/31 00:44:21;;;;;;;2.22;1.10;;;14.00;99.90;;;;;;611962;235;26580;-67
2022/08/31 00:46:49;;;;;;;1.33;1.23;;;13.90;99.90;;;;;;609470;235;26648;-67
2022/08/31 00:49:17;;;;;;;1.08;1.05;;;13.90;99.90;;;;;;611067;235;26607;-68
2022/08/31 00:51:51;;;;;;;1.55;1.23;;;13.90;99.90;;;;;;610233;235;26963;-67
2022/08/31 00:54:18;;;;;;;0.95;0.95;;;13.90;99.90;;;;;;609953;235;26572;-67
2022/08/31 00:56:45;;;;;;;1.20;1.10;;;13.80;99.90;;;;;;609429;236;26848;-68
2022/08/31 00:59:12;;;;;;;1.45;1.20;;;13.80;99.90;;;;;;605586;235;26604;-68
2022/08/31 01:01:40;;;;;;;1.80;1.33;;;13.80;99.90;;;;;;605107;235;26835;-68
2022/08/31 01:04:07;;;;;;;1.35;0.90;;;13.80;99.90;;;;;;604621;235;26594;-68
2022/08/31 01:06:34;;;;;;;0.80;0.80;;;13.80;99.90;;;;;;604596;237;26558;-68
2022/08/31 01:09:02;;;;;;;0.90;0.90;;;13.70;99.90;;;;;;604814;235;26583;-68
2022/08/31 01:11:30;;;;;;;2.97;1.27;;;13.70;99.90;;;;;;606829;234;26662;-68
2022/08/31 01:13:58;;;;;;;1.02;1.00;;;13.70;99.90;;;;;;607052;234;26633;-68
2022/08/31 01:16:27;;;;;;;1.02;1.00;;;13.70;99.90;;;;;;608548;235;26650;-67
2022/08/31 01:18:54;;;;;;;1.33;1.25;;;13.70;99.90;;;;;;605418;234;26823;-67
2022/08/31 01:21:22;;;;;;;1.17;1.10;;;13.70;99.90;;;;;;607488;235;26655;-67
2022/08/31 01:23:49;;;;;;;0.93;0.93;;;13.80;99.90;;;;;;608725;235;26667;-68
2022/08/31 01:26:16;;;;;;;0.95;0.90;;;13.80;99.90;;;;;;605158;235;26870;-68
2022/08/31 01:28:43;;;;;;;1.10;1.00;;;14.00;99.90;;;;;;606628;235;26651;-68
2022/08/31 01:31:13;;;;;;;0.95;0.95;;;14.00;99.90;;;;;;605812;235;26946;-68
2022/08/31 01:33:41;;;;;;;1.17;0.80;;;14.20;99.90;;;;;;610960;235;26588;-68
2022/08/31 01:36:08;;;;;;;1.10;1.00;;;14.30;99.90;;;;;;610293;235;26972;-68
2022/08/31 01:38:35;;;;;;;1.05;0.82;;;14.40;99.90;;;;;;608317;234;26608;-68
2022/08/31 01:41:03;;;;;;;1.17;1.00;;;14.50;99.90;;;;;;611615;234;26600;-69
2022/08/31 01:43:32;;;;;;;0.70;0.70;;;14.60;99.90;;;;;;611414;235;26579;-68
2022/08/31 01:46:00;;;;;;;0.95;0.95;;;14.70;99.90;;;;;;612344;234;26600;-68
2022/08/31 01:48:27;;;;;;;1.12;0.93;;;14.70;99.90;;;;;;609009;234;26633;-68
2022/08/31 01:50:54;;;;;;;1.15;0.90;;;14.80;99.90;;;;;;607951;235;26649;-68
2022/08/31 01:53:22;;;;;;;0.88;0.88;;;14.80;99.90;;;;;;611508;235;26836;-68
2022/08/31 01:55:49;;;;;;;1.05;1.00;;;14.90;99.90;;;;;;612790;235;26618;-68
2022/08/31 01:58:16;;;;;;;1.87;1.00;;;14.90;99.90;;;;;;611985;235;26832;-68
2022/08/31 02:00:43;;;;;;;1.37;0.80;;;14.90;99.90;;;;;;605965;235;26574;-69
2022/08/31 02:03:10;;;;;;;0.75;0.75;;;15.00;99.90;;;;;;611577;234;26813;-69
2022/08/31 02:05:38;;;;;;;0.93;0.93;;;15.00;99.90;;;;;;610093;236;26573;-68
2022/08/31 02:08:05;;;;;;;0.90;0.90;;;15.00;99.90;;;;;;612027;235;26798;-69
2022/08/31 02:10:33;;;;;;;0.90;0.90;;;15.10;99.90;;;;;;612362;234;26673;-69
2022/08/31 02:13:01;;;;;;;1.33;0.70;;;15.10;99.90;;;;;;612369;234;26661;-69
2022/08/31 02:15:29;;;;;;;1.15;1.05;;;15.00;99.90;;;;;;612362;234;26638;-69
2022/08/31 02:17:58;;;;;;;0.90;0.90;;;15.00;99.90;;;;;;612479;234;26638;-69
2022/08/31 02:20:24;;;;;;;1.12;1.02;;;15.00;99.90;;;;;;610830;235;26673;-69
2022/08/31 02:22:52;;;;;;;0.73;0.73;;;14.90;99.90;;;;;;609564;233;26867;-69
2022/08/31 02:25:20;;;;;;;0.90;0.90;;;14.90;99.90;;;;;;605663;236;26625;-69
2022/08/31 02:27:47;;;;;;;1.35;0.80;;;14.90;99.90;;;;;;608228;235;26630;-69
2022/08/31 02:30:15;;;;;;;0.80;0.80;;;14.90;99.90;;;;;;607380;234;26654;-69
2022/08/31 02:32:43;;;;;;;0.88;0.88;;;14.90;99.90;;;;;;606065;232;26644;-69
2022/08/31 02:35:11;;;;;;;1.30;0.93;;;14.90;99.90;;;;;;611187;234;26579;-69
2022/08/31 02:37:38;;;;;;;0.90;0.90;;;14.90;99.90;;;;;;610801;235;26637;-69
2022/08/31 02:40:07;;;;;;;2.12;0.98;;;14.90;99.90;;;;;;607957;235;26680;-69
2022/08/31 02:42:33;;;;;;;2.20;0.90;;;14.80;99.90;;;;;;611792;235;26811;-69
2022/08/31 02:45:01;;;;;;;0.70;0.70;;;14.70;99.90;;;;;;610484;235;26612;-68
2022/08/31 02:47:30;;;;;;;0.98;0.95;;;14.70;99.90;;;;;;610222;235;26597;-69
2022/08/31 02:49:56;;;;;;;2.05;1.00;;;14.60;99.90;;;;;;608195;236;26841;-69
2022/08/31 02:52:23;;;;;;;1.35;0.93;;;14.60;99.90;;;;;;604961;236;26610;-69
2022/08/31 02:54:50;;;;;;;0.85;0.85;;;14.50;99.90;;;;;;605287;235;26817;-68
2022/08/31 02:57:17;;;;;;;0.73;0.73;;;14.50;99.90;;;;;;605660;235;26573;-68
2022/08/31 02:59:44;;;;;;;0.90;0.90;;;14.50;99.90;;;;;;609849;235;26852;-69
2022/08/31 03:02:12;;;;;;;0.80;0.80;;;14.40;99.90;;;;;;609974;235;26653;-68
2022/08/31 03:04:39;;;;;;;0.90;0.90;;;14.40;99.90;;;;;;609934;235;26602;-69
2022/08/31 03:07:07;;;;;;;0.70;0.70;;;14.40;99.90;;;;;;605322;235;26582;-68
2022/08/31 03:09:35;;;;;;;0.80;0.80;;;14.30;99.90;;;;;;609851;235;26589;-68
2022/08/31 03:12:03;;;;;;;0.73;0.73;;;14.30;99.90;;;;;;604929;235;26614;-69
2022/08/31 03:14:30;;;;;;;1.37;1.02;;;14.30;99.90;;;;;;609880;236;26902;-68
2022/08/31 03:16:57;;;;;;;0.77;0.77;;;14.30;99.90;;;;;;612005;235;26592;-69
2022/08/31 03:19:24;;;;;;;1.00;0.90;;;14.40;99.90;;;;;;612398;235;26880;-69
2022/08/31 03:21:52;;;;;;;0.73;0.73;;;14.40;99.90;;;;;;611667;234;26647;-68
2022/08/31 03:24:20;;;;;;;0.88;0.88;;;14.40;99.90;;;;;;610733;235;26833;-68
2022/08/31 03:26:46;;;;;;;1.30;1.00;;;14.50;99.90;;;;;;612195;234;26623;-69
2022/08/31 03:29:13;;;;;;;0.93;0.90;;;14.50;99.90;;;;;;612494;235;26816;-68
2022/08/31 03:31:41;;;;;;;0.85;0.85;;;14.40;99.90;;;;;;606514;235;26610;-68
2022/08/31 03:34:09;;;;;;;0.77;0.77;;;14.30;99.90;;;;;;608806;234;26642;-69
2022/08/31 03:36:37;;;;;;;0.80;0.80;;;14.20;99.90;;;;;;607965;233;26633;-69
2022/08/31 03:39:05;;;;;;;0.80;0.80;;;14.20;99.90;;;;;;610166;234;26584;-69
2022/08/31 03:41:32;;;;;;;2.20;0.98;;;14.10;99.90;;;;;;606688;234;26601;-69
2022/08/31 03:44:00;;;;;;;1.73;0.88;;;14.10;99.90;;;;;;605941;235;26646;-68
2022/08/31 03:46:28;;;;;;;0.77;0.77;;;13.90;99.90;;;;;;607600;235;26854;-68
2022/08/31 03:48:56;;;;;;;0.80;0.80;;;14.00;99.90;;;;;;611653;235;26795;-68
2022/08/31 03:51:23;;;;;;;0.88;0.85;;;13.90;99.90;;;;;;607679;234;26838;-69
2022/08/31 03:53:50;;;;;;;0.98;0.98;;;13.80;99.90;;;;;;609042;235;26639;-69
2022/08/31 03:56:17;;;;;;;0.95;0.95;;;13.80;99.90;;;;;;610220;235;26845;-69
2022/08/31 03:58:44;;;;;;;1.20;0.90;;;13.70;99.90;;;;;;611930;235;26573;-69
2022/08/31 04:01:11;;;;;;;1.10;0.95;;;13.70;99.90;;;;;;605317;235;26846;-68
2022/08/31 04:03:39;;;;;;;0.90;0.90;;;13.70;99.90;;;;;;604881;235;26590;-68
2022/08/31 04:06:08;;;;;;;1.20;0.82;;;13.60;99.90;;;;;;608431;235;26848;-68
2022/08/31 04:08:35;;;;;;;1.40;1.00;;;13.60;99.90;;;;;;606873;235;26943;-69
2022/08/31 04:11:07;;;;;;;0.77;0.77;;;13.60;99.90;;;;;;608013;235;26885;-68
2022/08/31 04:13:34;;;;;;;1.30;0.70;;;13.60;99.90;;;;;;608264;234;26837;-68
2022/08/31 04:16:01;;;;;;;0.80;0.80;;;13.70;99.90;;;;;;604975;232;26554;-69
2022/08/31 04:18:28;;;;;;;1.20;1.08;;;13.70;99.90;;;;;;610877;235;26580;-68
2022/08/31 04:20:56;;;;;;;0.90;0.90;;;13.70;99.90;;;;;;611768;235;26624;-68
2022/08/31 04:23:28;;;;;;;0.88;0.88;;;13.70;99.90;;;;;;608692;234;26602;-68
2022/08/31 04:25:51;;;;;;;1.08;0.98;;;13.60;99.90;;;;;;604741;235;26561;-68
2022/08/31 04:28:19;;;;;;;0.70;0.70;;;13.70;99.90;;;;;;609978;235;26578;-68
2022/08/31 04:30:47;;;;;;;0.88;0.88;;;13.60;99.90;;;;;;609721;235;26602;-68
2022/08/31 04:33:13;;;;;;;1.08;1.00;;;13.60;99.90;;;;;;610110;234;26584;-69
2022/08/31 04:35:40;;;;;;;0.75;0.75;;;13.60;99.90;;;;;;608647;235;26836;-68
2022/08/31 04:38:07;;;;;;;0.80;0.80;;;13.60;99.90;;;;;;611892;234;26640;-68
2022/08/31 04:40:36;;;;;;;1.87;0.95;;;13.60;99.90;;;;;;605899;234;26879;-68
2022/08/31 04:43:04;;;;;;;1.00;1.00;;;13.60;99.90;;;;;;610272;235;26849;-68
2022/08/31 04:45:31;;;;;;;1.30;0.93;;;13.60;99.90;;;;;;612023;232;26596;-68
2022/08/31 04:47:58;;;;;;;0.90;0.90;;;13.70;99.90;;;;;;611136;234;26890;-68
2022/08/31 04:50:25;;;;;;;2.22;1.20;;;13.70;99.90;;;;;;612962;234;26573;-68
2022/08/31 04:52:52;;;;;;;0.80;0.80;;;13.70;99.90;;;;;;608593;234;26869;-69
2022/08/31 04:55:20;;;;;;;1.65;0.80;;;13.70;99.90;;;;;;605143;237;26649;-69
2022/08/31 04:57:49;;;;;;;1.00;0.90;;;13.60;99.90;;;;;;605213;235;26638;-69
2022/08/31 05:00:16;;;;;;;0.80;0.80;;;13.60;99.90;;;;;;605931;235;26616;-69
2022/08/31 05:02:44;;;;;;;3.10;0.93;;;13.60;99.90;;;;;;605055;236;26623;-71
2022/08/31 05:05:11;;;;;;;3.20;1.10;;;13.60;99.90;;;;;;605845;235;26571;-68
2022/08/31 05:07:39;;;;;;;1.30;1.10;;;13.60;99.90;;;;;;610292;235;26642;-69
2022/08/31 05:10:07;;;;;;;4.47;1.37;;;13.60;99.90;;;;;;610129;236;26900;-70
2022/08/31 05:12:34;;;;;;;2.45;1.12;;;13.60;99.90;;;;;;611024;235;26641;-69
2022/08/31 05:15:02;;;;;;;1.12;0.90;;;13.60;99.90;;;;;;607376;234;26816;-69
2022/08/31 05:17:29;;;;;;;11.45;3.45;;;13.70;99.90;;;;;;611475;235;26580;-70
2022/08/31 05:19:56;;;;;;;0.98;0.98;;;13.70;99.90;;;;;;606519;234;26828;-70
2022/08/31 05:22:23;;;;;;;2.05;1.20;;;13.70;99.90;;;;;;605793;235;26610;-70
2022/08/31 05:24:50;;;;;;;6.65;1.77;;;13.80;99.90;;;;;;604598;237;26916;-70
2022/08/31 05:27:18;;;;;;;13.70;4.62;;;13.90;99.90;;;;;;604684;235;26563;-70
2022/08/31 05:29:45;;;;;;;2.25;1.08;;;13.90;99.90;;;;;;604764;235;26857;-64
2022/08/31 05:32:13;;;;;;;1.87;1.30;;;14.00;99.90;;;;;;609726;235;26683;-64
2022/08/31 05:34:40;;;;;;;1.12;0.90;;;14.00;99.90;;;;;;605625;235;26587;-64
2022/08/31 05:37:08;;;;;;;1.20;1.10;;;14.00;99.90;;;;;;609965;234;26572;-64
2022/08/31 05:39:35;;;;;;;2.67;1.10;;;14.10;99.90;;;;;;609107;232;26642;-64
2022/08/31 05:42:03;;;;;;;3.35;1.42;;;14.20;99.90;;;;;;605026;235;26581;-64
2022/08/31 05:44:31;;;;;;;2.72;1.33;;;14.30;99.90;;;;;;604761;235;26619;-64
2022/08/31 05:46:59;;;;;;;6.03;2.30;;;14.20;99.90;;;;;;605844;235;26600;-64
2022/08/31 05:49:26;;;;;;;4.45;1.70;;;14.30;99.90;;;;;;607503;235;26817;-64
2022/08/31 05:51:55;;;;;;;1.62;1.42;;;14.50;99.90;;;;;;610625;234;26600;-64
2022/08/31 05:54:22;;;;;;;2.75;1.50;;;14.50;99.90;;;;;;609619;235;26635;-64
2022/08/31 05:56:50;;;;;;;1.25;1.12;;;14.60;99.90;;;;;;611289;232;26642;-64
2022/08/31 05:59:18;;;;;;;1.00;1.00;;;14.70;99.90;;;;;;608574;235;26642;-64
2022/08/31 06:01:45;;;;;;;3.92;0.95;;;14.70;99.90;;;;;;610959;234;26618;-65
2022/08/31 06:04:12;;;;;;;2.22;1.08;;;14.90;99.90;;;;;;610720;234;26645;-65
2022/08/31 06:06:40;;;;;;;1.83;1.23;;;15.00;99.90;;;;;;611635;235;26849;-65
2022/08/31 06:09:07;;;;;;;1.50;1.00;;;15.00;99.90;;;;;;607917;235;26640;-64
2022/08/31 06:11:37;;;;;;;2.22;1.37;;;15.30;99.90;;;;;;612472;234;26881;-64
2022/08/31 06:14:02;;;;;;;1.58;0.82;;;15.20;99.90;;;;;;609631;236;26822;-65
2022/08/31 06:16:29;;;;;;;1.92;1.05;;;15.30;99.90;;;;;;605466;235;26584;-64
2022/08/31 06:18:57;;;;;;;4.28;1.37;;;15.40;99.90;;;;;;606284;235;26829;-64
2022/08/31 06:21:25;;;;;;;1.85;1.20;;;15.50;99.90;;;;;;606910;235;26623;-64
2022/08/31 06:23:53;;;;;;;2.10;1.25;;;15.60;99.90;;;;;;608286;234;26640;-65
2022/08/31 06:26:20;;;;;;;1.55;1.42;;;15.70;99.90;;;;;;604871;237;27118;-64
2022/08/31 06:28:48;;;;;;;2.28;1.08;;;15.90;99.90;;;;;;607089;235;26556;-67
2022/08/31 06:31:17;;;;;;;1.30;1.20;;;16.00;99.90;;;;;;607931;235;26639;-65
2022/08/31 06:33:44;;;;;;;4.95;1.55;;;16.10;99.90;;;;;;604544;235;26582;-65
2022/08/31 06:36:12;;;;;;;2.60;1.40;;;16.20;99.90;;;;;;612137;235;26846;-66
2022/08/31 06:38:39;;;;;;;69.57;13.40;;;16.20;99.90;;;;;;612480;235;26593;-64
2022/08/31 06:41:13;;;;;;;8.40;3.00;;;16.30;99.90;;;;;;609377;234;26666;-65
2022/08/31 06:43:40;;;;;;;15.32;4.25;;;16.50;99.90;;;;;;610994;235;26673;-66
2022/08/31 06:46:07;;;;;;;27.25;6.50;;;16.60;99.90;;;;;;611353;235;26610;-65
2022/08/31 06:48:34;;;;;;;33.67;7.43;;;16.70;99.90;;;;;;608196;235;26633;-65
2022/08/31 06:51:02;;;;;;;32.85;8.80;;;16.80;99.90;;;;;;606077;234;26610;-64
2022/08/31 06:53:29;;;;;;;37.40;7.80;;;17.00;99.90;;;;;;612484;234;26635;-64
2022/08/31 06:55:56;;;;;;;31.12;6.35;;;17.10;99.90;;;;;;612517;235;26563;-64
2022/08/31 06:58:23;;;;;;;27.70;5.75;;;17.20;99.90;;;;;;609027;235;26574;-64
2022/08/31 07:00:50;;;;;;;13.90;3.37;;;17.30;99.90;;;;;;607920;235;26676;-64
2022/08/31 07:03:22;;;;;;;8.30;2.72;;;17.50;99.90;;;;;;611576;235;26572;-64
2022/08/31 07:05:50;;;;;;;4.45;2.17;;;17.50;99.90;;;;;;611985;235;26833;-64
2022/08/31 07:08:18;;;;;;;3.45;1.80;;;17.60;99.90;;;;;;605596;235;26577;-64
2022/08/31 07:10:45;;;;;;;3.80;1.20;;;17.60;99.90;;;;;;605806;237;26977;-64
2022/08/31 07:13:12;;;;;;;1.25;1.15;;;17.70;99.90;;;;;;605501;237;26574;-67
2022/08/31 07:15:39;;;;;;;1.85;1.20;;;17.80;99.90;;;;;;605422;237;26834;-66
2022/08/31 07:18:06;;;;;;;2.10;1.02;;;17.90;99.90;;;;;;605908;235;26808;-68
2022/08/31 07:20:34;;;;;;;8.00;1.45;;;18.00;99.20;;;;;;612961;235;26868;-68
2022/08/31 07:23:01;;;;;;;4.85;2.20;;;18.10;99.70;;;;;;610780;234;26861;-68
2022/08/31 07:25:29;;;;;;;14.93;4.70;;;18.10;98.10;;;;;;612031;230;26610;-69
2022/08/31 07:27:58;;;;;;;49.95;10.68;;;18.10;98.10;;;;;;612674;234;26583;-69
2022/08/31 07:30:24;;;;;;;5.28;1.40;;;18.20;97.80;;;;;;604775;238;26862;-67
2022/08/31 07:32:50;;;;;;;68.25;16.40;;;18.20;99.30;;;;;;607925;236;26843;-65
2022/08/31 07:35:18;;;;;;;52.15;11.80;;;18.30;99.30;;;;;;611469;234;26625;-65
2022/08/31 07:42:51;;;;;;;61.20;13.80;;;18.50;97.20;;;;;;607712;235;26607;-65
2022/08/31 07:45:20;;;;;;;57.47;12.98;;;18.50;98.20;;;;;;609077;235;26660;-65
2022/08/31 07:47:46;;;;;;;55.47;12.65;;;18.60;97.90;;;;;;607289;235;26634;-69
2022/08/31 07:50:14;;;;;;;36.08;9.63;;;18.70;96.10;;;;;;607279;235;26627;-66
2022/08/31 07:52:45;;;;;;;51.67;12.63;;;18.80;96.50;;;;;;605609;236;26649;-65
2022/08/31 07:55:10;;;;;;;39.90;9.77;;;18.70;96.50;;;;;;605899;236;26663;-66
2022/08/31 07:57:42;;;;;;;20.23;5.90;;;18.80;95.60;;;;;;609678;232;26833;-65
2022/08/31 08:00:07;;;;;;;30.95;9.45;;;18.80;93.10;;;;;;609406;236;26575;-64
2022/08/31 08:02:37;;;;;;;39.65;8.55;;;18.80;94.00;;;;;;610200;236;26589;-66
2022/08/31 08:05:02;;;;;;;14.52;3.92;;;18.90;94.60;;;;;;610139;236;26831;-66
2022/08/31 08:07:32;;;;;;;15.95;4.57;;;18.90;93.70;;;;;;611189;235;26548;-65
2022/08/31 08:09:56;;;;;;;15.90;4.87;;;19.00;91.90;;;;;;612151;235;26965;-65
2022/08/31 08:12:24;;;;;;;15.57;4.90;;;19.10;94.10;;;;;;612445;235;26670;-65
2022/08/31 08:14:53;;;;;;;16.80;5.05;;;19.10;94.50;;;;;;612355;235;26857;-65
2022/08/31 08:17:18;;;;;;;7.43;2.50;;;19.20;92.80;;;;;;612254;235;26632;-65
2022/08/31 08:19:45;;;;;;;8.93;3.35;;;19.30;93.80;;;;;;613416;232;26888;-65
2022/08/31 08:22:12;;;;;;;4.05;1.50;;;19.30;92.30;;;;;;613672;234;26606;-65
2022/08/31 08:24:40;;;;;;;1.15;1.00;;;19.40;93.40;;;;;;613403;234;27239;-65
2022/08/31 08:27:07;;;;;;;1.17;1.00;;;19.50;93.20;;;;;;613144;234;26843;-66
2022/08/31 08:29:34;;;;;;;1.75;0.80;;;19.70;92.90;;;;;;613069;234;26620;-65
2022/08/31 08:32:02;;;;;;;1.35;0.73;;;19.70;93.20;;;;;;612927;235;27438;-66
2022/08/31 08:34:29;;;;;;;1.60;1.20;;;19.80;94.10;;;;;;613001;235;26637;-66
2022/08/31 08:36:56;;;;;;;2.12;0.88;;;19.80;94.50;;;;;;612780;235;26951;-66
2022/08/31 08:39:24;;;;;;;0.90;0.85;;;19.90;91.10;;;;;;610274;236;26620;-66
2022/08/31 08:41:51;;;;;;;1.98;0.90;;;20.30;93.30;;;;;;610163;236;27157;-67
2022/08/31 08:44:18;;;;;;;1.50;0.90;;;20.40;93.30;;;;;;607372;236;26852;-66
2022/08/31 08:46:47;;;;;;;2.42;1.05;;;20.40;90.10;;;;;;604768;238;26596;-67
2022/08/31 08:49:44;;;;;;;1.55;1.05;;;20.30;90.10;;;;;;607659;234;26662;-65
2022/08/31 08:52:11;;;;;;;0.70;0.70;;;20.30;90.10;;;;;;607059;235;26669;-66
2022/08/31 08:54:39;;;;;;;1.95;1.05;;;20.30;89.70;;;;;;609679;235;26868;-66
2022/08/31 08:57:11;;;;;;;3.45;0.95;;;20.30;90.10;;;;;;609031;235;26584;-66
2022/08/31 08:59:36;;;;;;;1.15;1.02;;;20.30;90.40;;;;;;609834;235;27233;-66
2022/08/31 09:02:05;;;;;;;2.20;0.98;;;20.40;91.10;;;;;;611827;234;26650;-66
2022/08/31 09:04:38;;;;;;;1.25;0.75;;;20.60;90.10;;;;;;610875;235;26840;-66
2022/08/31 09:07:31;;;;;;;4.68;1.02;;;20.60;88.80;;;;;;611791;235;26642;-66
2022/08/31 09:10:04;;;;;;;1.40;1.00;;;20.60;86.20;;;;;;598230;237;26624;-66
2022/08/31 09:12:47;;;;;;;0.82;0.82;;;20.70;88.60;;;;;;608997;234;26868;-66
2022/08/31 09:15:16;;;;;;;1.87;0.60;;;20.80;86.90;;;;;;607872;235;26639;-65
2022/08/31 09:17:51;;;;;;;2.05;0.90;;;20.80;90.00;;;;;;605630;235;26819;-66
2022/08/31 09:20:18;;;;;;;0.85;0.80;;;20.80;83.80;;;;;;609163;235;26849;-66
2022/08/31 09:22:49;;;;;;;0.75;0.75;;;20.60;85.70;;;;;;607940;235;26630;-66
2022/08/31 09:25:15;;;;;;;1.08;0.85;;;20.50;85.40;;;;;;604516;237;26640;-66
2022/08/31 09:27:56;;;;;;;1.00;0.80;;;20.40;84.50;;;;;;609650;235;26657;-65
2022/08/31 09:30:18;;;;;;;1.75;0.88;;;20.40;87.10;;;;;;609930;232;26636;-65
2022/08/31 09:32:52;;;;;;;0.90;0.80;;;20.30;85.40;;;;;;611277;234;26824;-65
2022/08/31 09:35:22;;;;;;;3.33;1.10;;;20.40;84.60;;;;;;605544;237;26682;-65
2022/08/31 09:38:06;;;;;;;2.00;1.05;;;20.60;82.50;;;;;;609241;234;26858;-66
2022/08/31 09:40:37;;;;;;;1.50;0.95;;;20.70;79.50;;;;;;605218;235;26878;-65
2022/08/31 09:43:07;;;;;;;3.55;0.85;;;20.70;82.50;;;;;;607627;235;26627;-66
2022/08/31 09:45:35;;;;;;;0.93;0.88;;;20.90;82.10;;;;;;612789;235;26639;-66
2022/08/31 09:48:02;;;;;;;1.02;0.68;;;21.10;84.70;;;;;;613126;235;26633;-66
2022/08/31 09:50:30;;;;;;;1.42;1.20;;;21.40;83.80;;;;;;612767;234;26656;-66
2022/08/31 09:55:39;;;;;;;3.12;1.00;;;21.60;80.40;;;;;;604936;238;27254;-65
2022/08/31 09:58:09;;;;;;;2.08;0.88;;;21.50;77.20;;;;;;604847;235;26583;-66
2022/08/31 10:00:35;;;;;;;1.83;0.80;;;21.50;76.30;;;;;;604641;238;27311;-66
2022/08/31 10:03:07;;;;;;;0.70;0.70;;;21.30;77.60;;;;;;605707;235;26554;-66
2022/08/31 10:05:39;;;;;;;1.23;0.80;;;21.30;82.70;;;;;;611428;234;26826;-66
2022/08/31 10:08:03;;;;;;;4.32;0.80;;;21.30;76.60;;;;;;609515;236;27300;-66
2022/08/31 10:10:30;;;;;;;1.02;0.90;;;21.30;80.70;;;;;;605850;235;26629;-72
2022/08/31 10:13:00;;;;;;;0.65;0.65;;;21.40;78.10;;;;;;606801;236;26631;-73
2022/08/31 10:15:34;;;;;;;0.90;0.90;;;21.40;78.00;;;;;;604552;237;26604;-73
2022/08/31 10:18:10;;;;;;;2.80;1.05;;;21.40;79.30;;;;;;611738;235;26645;-73
2022/08/31 10:20:38;;;;;;;1.15;1.05;;;21.40;77.90;;;;;;604339;235;26853;-73
2022/08/31 10:23:05;;;;;;;0.70;0.70;;;21.30;75.20;;;;;;604002;238;26605;-73
2022/08/31 10:25:40;;;;;;;1.90;1.05;;;21.30;80.30;;;;;;604156;238;26582;-73
2022/08/31 10:28:11;;;;;;;1.62;1.00;;;21.30;77.30;;;;;;605170;235;26808;-73
2022/08/31 10:30:36;;;;;;;2.60;0.70;;;21.70;72.30;;;;;;612128;235;26658;-73
2022/08/31 10:33:09;;;;;;;1.17;0.90;;;22.00;74.20;;;;;;611329;235;26629;-73
2022/08/31 10:35:41;;;;;;;1.80;0.93;;;22.00;73.40;;;;;;608249;235;26592;-74
2022/08/31 10:38:25;;;;;;;3.28;1.10;;;21.90;72.60;;;;;;611896;235;26660;-73
2022/08/31 10:41:10;;;;;;;8.07;1.25;;;21.60;69.10;;;;;;600485;239;26598;-72
2022/08/31 10:43:47;;;;;;;7.85;1.10;;;21.60;69.40;;;;;;600992;234;26649;-73
2022/08/31 10:46:14;;;;;;;0.80;0.70;;;21.70;73.90;;;;;;601713;239;26601;-72
2022/08/31 10:48:52;;;;;;;1.15;0.90;;;21.80;71.50;;;;;;601359;239;26645;-71
2022/08/31 10:51:40;;;;;;;0.80;0.80;;;21.90;73.90;;;;;;607066;234;26662;-72
2022/08/31 10:54:12;;;;;;;1.05;0.80;;;22.20;69.70;;;;;;604698;235;26683;-72
2022/08/31 10:56:40;;;;;;;1.92;0.90;;;22.20;69.60;;;;;;610166;235;26631;-72
2022/08/31 10:59:10;;;;;;;1.15;0.73;;;22.50;75.60;;;;;;608893;235;26578;-73
2022/08/31 11:01:49;;;;;;;4.47;1.20;;;22.80;70.60;;;;;;609542;235;26661;-72
2022/08/31 11:04:21;;;;;;;2.50;1.00;;;22.80;70.80;;;;;;609074;235;26638;-72
2022/08/31 11:06:55;;;;;;;0.75;0.70;;;23.70;67.90;;;;;;610116;235;26636;-71
2022/08/31 11:09:23;;;;;;;1.80;0.82;;;23.60;66.90;;;;;;605397;236;26654;-72
2022/08/31 11:12:12;;;;;;;3.78;1.00;;;23.70;64.60;;;;;;606865;235;26669;-73
2022/08/31 11:15:05;;;;;;;1.23;1.00;;;23.20;70.20;;;;;;607471;235;26678;-73
2022/08/31 11:17:30;;;;;;;1.70;1.02;;;23.10;62.60;;;;;;606929;234;26636;-72
2022/08/31 11:20:05;;;;;;;4.68;0.88;;;23.00;62.50;;;;;;607650;235;26637;-73
2022/08/31 11:22:39;;;;;;;2.12;0.90;;;22.90;67.60;;;;;;612117;235;26679;-73
2022/08/31 11:25:12;;;;;;;1.55;0.95;;;22.70;67.60;;;;;;607358;235;26646;-73
2022/08/31 11:27:44;;;;;;;2.22;0.77;;;22.70;68.40;;;;;;608399;235;26860;-74
2022/08/31 11:30:12;;;;;;;4.15;1.02;;;22.80;68.50;;;;;;611682;234;26931;-74
2022/08/31 11:32:44;;;;;;;1.12;0.80;;;23.10;68.60;;;;;;609851;236;26824;-73
2022/08/31 11:35:09;;;;;;;1.85;0.82;;;23.40;64.90;;;;;;609969;236;26557;-73
2022/08/31 11:37:51;;;;;;;1.00;0.80;;;23.30;64.80;;;;;;609449;235;26559;-74
2022/08/31 11:40:49;;;;;;;3.65;0.95;;;23.50;65.50;;;;;;607787;235;26846;-74
2022/08/31 11:43:44;;;;;;;1.87;0.90;;;23.60;62.30;;;;;;606033;235;26612;-73
2022/08/31 11:46:41;;;;;;;2.17;1.10;;;23.20;63.50;;;;;;601096;239;26636;-73
2022/08/31 11:49:09;;;;;;;1.92;1.17;;;22.90;61.40;;;;;;603108;238;26603;-73
2022/08/31 11:51:52;;;;;;;3.17;1.25;;;23.10;66.50;;;;;;606532;236;26588;-73
2022/08/31 11:54:51;;;;;;;0.88;0.80;;;23.10;65.20;;;;;;611129;233;26552;-74
2022/08/31 11:57:19;;;;;;;1.30;1.00;;;22.90;67.70;;;;;;600718;234;26651;-73
2022/08/31 11:59:46;;;;;;;1.52;0.88;;;23.00;67.70;;;;;;609458;234;26660;-73
2022/08/31 12:02:44;;;;;;;3.55;0.80;;;23.10;63.20;;;;;;605463;236;26610;-74
2022/08/31 12:05:11;;;;;;;2.30;1.20;;;23.10;63.40;;;;;;601000;239;26639;-73
2022/08/31 12:07:42;;;;;;;1.48;0.98;;;23.10;65.50;;;;;;601455;239;26646;-72
2022/08/31 12:10:29;;;;;;;1.35;0.77;;;23.20;67.20;;;;;;601342;239;26631;-73
2022/08/31 12:13:17;;;;;;;2.62;0.73;;;23.30;67.30;;;;;;601072;239;26872;-73
2022/08/31 12:15:57;;;;;;;2.42;0.80;;;23.50;62.60;;;;;;602207;238;26624;-73
2022/08/31 12:18:29;;;;;;;0.68;0.68;;;23.50;62.50;;;;;;604676;238;26585;-73
2022/08/31 12:23:47;;;;;;;1.23;0.90;;;23.80;60.50;;;;;;604927;238;26602;-73
2022/08/31 12:26:21;;;;;;;1.20;0.80;;;23.60;62.00;;;;;;603973;238;26586;-73
2022/08/31 12:28:54;;;;;;;2.40;0.80;;;23.70;63.20;;;;;;604499;238;26632;-74
2022/08/31 12:31:21;;;;;;;0.73;0.73;;;23.80;59.20;;;;;;603949;234;26582;-72
2022/08/31 12:33:59;;;;;;;0.77;0.62;;;24.00;60.30;;;;;;610179;232;26627;-73
2022/08/31 12:36:27;;;;;;;3.35;0.90;;;24.40;59.70;;;;;;604516;238;26597;-72
2022/08/31 12:39:05;;;;;;;3.08;0.77;;;24.70;63.50;;;;;;607279;235;26634;-73
2022/08/31 12:41:31;;;;;;;2.45;1.10;;;25.20;61.20;;;;;;607172;235;26662;-74
2022/08/31 12:43:59;;;;;;;1.20;0.90;;;25.60;55.40;;;;;;611329;234;26640;-73
2022/08/31 12:46:31;;;;;;;0.75;0.62;;;25.50;56.10;;;;;;609942;234;26638;-73
2022/08/31 12:49:06;;;;;;;1.10;0.98;;;25.50;56.00;;;;;;610113;235;26633;-72
2022/08/31 12:51:36;;;;;;;3.20;0.98;;;24.80;55.90;;;;;;607899;235;26699;-72
2022/08/31 12:54:14;;;;;;;2.62;1.00;;;24.70;55.70;;;;;;609325;234;26628;-72
2022/08/31 12:57:02;;;;;;;4.12;0.85;;;24.70;56.70;;;;;;604572;238;26586;-72
2022/08/31 12:59:36;;;;;;;0.60;0.60;;;24.60;57.90;;;;;;606863;235;26860;-71
2022/08/31 13:02:03;;;;;;;2.30;0.90;;;24.50;56.70;;;;;;612419;234;26879;-72
2022/08/31 13:04:30;;;;;;;1.25;0.90;;;24.50;54.20;;;;;;612426;234;26630;-72
2022/08/31 13:06:57;;;;;;;1.50;0.70;;;24.80;55.70;;;;;;613907;232;26908;-72
2022/08/31 13:09:26;;;;;;;0.77;0.77;;;25.40;57.10;;;;;;612356;234;26584;-72
2022/08/31 13:11:53;;;;;;;1.30;0.70;;;26.10;56.60;;;;;;611465;234;26862;-72